Time;durP1;ratioP1;P1;durP2;ratioP2;P2;SDS_P1;SDS_P2;PMS_P1;PMS_P2;Temp;Humidity;BMP_temperature;BMP_pressure;BME280_temperature;BME280_humidity;BME280_pressure;Samples;Min_cycle;Max_cycle;Signal;HPM_P1;HPM_P2
2023/03/08 00:01:30;;;;;;;5.32;1.40;;;;;;;-1.78;100.00;99483.84;5039017;28;20192;-51
2023/03/08 00:03:56;;;;;;;3.15;0.93;;;;;;;-1.77;100.00;99477.72;5042225;28;20199;-51
2023/03/08 00:06:24;;;;;;;2.70;0.73;;;;;;;-1.79;100.00;99487.34;5039738;28;20187;-52
2023/03/08 00:08:54;;;;;;;2.40;0.80;;;;;;;-1.80;100.00;99480.34;5048650;28;20226;-51
2023/03/08 00:11:19;;;;;;;5.03;0.82;;;;;;;-1.77;100.00;99479.44;5036057;28;20179;-50
2023/03/08 00:13:45;;;;;;;3.67;1.20;;;;;;;-1.74;100.00;99484.69;5040009;28;20210;-51
2023/03/08 00:16:12;;;;;;;5.97;0.75;;;;;;;-1.80;100.00;99482.97;5045197;28;20701;-51
2023/03/08 00:18:38;;;;;;;5.55;0.70;;;;;;;-1.77;100.00;99489.94;5042143;28;20183;-50
2023/03/08 00:21:14;;;;;;;0.82;0.60;;;;;;;-1.80;100.00;99487.38;5046809;28;20179;-51
2023/03/08 00:23:40;;;;;;;2.58;0.80;;;;;;;-1.83;100.00;99493.53;5040100;28;20198;-51
2023/03/08 00:26:07;;;;;;;1.85;0.70;;;;;;;-1.84;100.00;99490.91;5037551;28;20678;-52
2023/03/08 00:28:32;;;;;;;4.03;0.93;;;;;;;-1.94;100.00;99500.63;5037852;28;20203;-51
2023/03/08 00:31:00;;;;;;;3.50;0.55;;;;;;;-1.89;100.00;99502.31;5044688;28;20531;-51
2023/03/08 00:33:27;;;;;;;2.67;0.73;;;;;;;-1.85;100.00;99502.28;5041850;28;20223;-51
2023/03/08 00:35:58;;;;;;;2.85;0.70;;;;;;;-1.98;100.00;99501.53;5037671;28;20521;-51
2023/03/08 00:38:23;;;;;;;4.03;0.88;;;;;;;-1.94;100.00;99511.13;5037797;28;20183;-53
2023/03/08 00:40:49;;;;;;;3.05;0.65;;;;;;;-1.88;100.00;99519.81;5042809;28;20187;-51
2023/03/08 00:43:14;;;;;;;0.95;0.70;;;;;;;-1.93;100.00;99520.72;5046606;28;20309;-51
2023/03/08 00:45:40;;;;;;;2.83;0.90;;;;;;;-1.94;100.00;99526.88;5050994;28;20175;-53
2023/03/08 00:48:05;;;;;;;5.20;1.10;;;;;;;-1.88;100.00;99521.53;5047624;28;20200;-51
2023/03/08 00:50:31;;;;;;;2.67;0.60;;;;;;;-1.77;100.00;99530.22;5046300;28;20457;-50
2023/03/08 00:52:56;;;;;;;0.80;0.70;;;;;;;-1.76;100.00;99529.31;5045939;28;20207;-51
2023/03/08 00:55:22;;;;;;;2.25;0.82;;;;;;;-1.77;100.00;99524.97;5036734;28;20271;-51
2023/03/08 00:57:48;;;;;;;1.50;0.70;;;;;;;-1.70;100.00;99526.63;5048755;28;20693;-51
2023/03/08 01:00:14;;;;;;;2.25;0.95;;;;;;;-1.71;100.00;99530.13;5048587;28;20211;-51
2023/03/08 01:02:39;;;;;;;1.85;0.75;;;;;;;-1.67;100.00;99531.84;5041894;28;20677;-51
2023/03/08 01:05:06;;;;;;;4.40;0.82;;;;;;;-1.62;100.00;99518.69;5038937;28;20610;-51
2023/03/08 01:07:32;;;;;;;4.10;0.70;;;;;;;-1.60;100.00;99521.28;5043684;28;20513;-50
2023/03/08 01:09:58;;;;;;;1.13;0.70;;;;;;;-1.73;100.00;99523.16;5037247;28;20246;-51
2023/03/08 01:12:24;;;;;;;3.92;0.77;;;;;;;-1.75;100.00;99519.69;5039111;28;20435;-52
2023/03/08 01:14:52;;;;;;;2.20;0.85;;;;;;;-1.76;100.00;99520.59;5042447;28;20747;-53
2023/03/08 01:17:18;;;;;;;3.25;0.65;;;;;;;-1.76;100.00;99523.22;5043854;28;20650;-53
2023/03/08 01:19:44;;;;;;;2.50;0.68;;;;;;;-1.77;100.00;99526.69;5040022;28;20188;-52
2023/03/08 01:22:10;;;;;;;2.42;0.80;;;;;;;-1.75;100.00;99527.56;5058139;28;20265;-51
2023/03/08 01:24:35;;;;;;;3.13;0.68;;;;;;;-1.87;100.00;99531.19;5043871;28;20176;-51
2023/03/08 01:27:01;;;;;;;1.95;0.70;;;;;;;-1.81;100.00;99520.63;5039441;28;20553;-51
2023/03/08 01:29:27;;;;;;;2.95;0.60;;;;;;;-1.87;100.00;99528.56;5041605;28;20207;-52
2023/03/08 01:31:54;;;;;;;2.20;0.77;;;;;;;-1.89;100.00;99528.56;5038006;28;20175;-52
2023/03/08 01:34:20;;;;;;;3.10;0.90;;;;;;;-1.95;100.00;99525.97;5046566;28;20686;-52
2023/03/08 01:36:47;;;;;;;3.63;0.85;;;;;;;-1.94;100.00;99527.72;5038554;28;20188;-51
2023/03/08 01:39:15;;;;;;;1.10;0.55;;;;;;;-1.97;100.00;99521.63;5037380;28;20292;-50
2023/03/08 01:41:41;;;;;;;5.32;0.60;;;;;;;-2.00;100.00;99533.03;5038541;28;20710;-51
2023/03/08 01:44:14;;;;;;;3.15;0.98;;;;;;;-2.06;100.00;99527.81;5036652;28;20344;-51
2023/03/08 01:46:40;;;;;;;3.22;0.77;;;;;;;-2.18;100.00;99528.81;5036003;28;20712;-52
2023/03/08 01:49:28;;;;;;;3.10;0.90;;;;;;;-2.21;100.00;99530.56;5032911;28;20286;-51
2023/03/08 01:52:29;;;;;;;2.63;0.80;;;;;;;-2.20;100.00;99527.09;5033414;28;20207;-52
2023/03/08 01:55:00;;;;;;;2.70;0.80;;;;;;;-2.17;100.00;99527.91;5041627;28;20456;-52
2023/03/08 01:57:32;;;;;;;4.85;1.13;;;;;;;-2.25;100.00;99514.00;5035439;28;20375;-51
2023/03/08 02:00:22;;;;;;;2.50;0.85;;;;;;;-2.13;100.00;99521.75;5047429;28;20273;-52
2023/03/08 02:02:53;;;;;;;2.72;0.73;;;;;;;-2.19;100.00;99518.31;5045254;28;20211;-52
2023/03/08 02:05:20;;;;;;;5.32;1.10;;;;;;;-2.13;100.00;99521.75;5042242;28;20184;-51
2023/03/08 02:07:49;;;;;;;4.25;1.15;;;;;;;-2.11;100.00;99517.38;5042850;28;20179;-52
2023/03/08 02:10:17;;;;;;;4.35;1.02;;;;;;;-2.13;100.00;99516.50;5044797;28;20702;-52
2023/03/08 02:12:43;;;;;;;6.32;0.80;;;;;;;-2.03;100.00;99516.44;5040314;28;20696;-50
2023/03/08 02:15:12;;;;;;;3.50;0.80;;;;;;;-2.10;100.00;99510.34;5019639;28;20188;-51
2023/03/08 02:17:40;;;;;;;5.20;0.80;;;;;;;-2.02;100.00;99518.19;5043889;28;20183;-52
2023/03/08 02:20:05;;;;;;;1.67;0.93;;;;;;;-2.10;100.00;99515.59;5059227;28;20702;-52
2023/03/08 02:22:31;;;;;;;3.78;0.90;;;;;;;-2.03;100.00;99512.06;5035213;28;20296;-52
2023/03/08 02:24:56;;;;;;;2.65;1.00;;;;;;;-1.99;100.00;99507.66;5040210;28;20168;-53
2023/03/08 02:27:27;;;;;;;4.28;0.90;;;;;;;-1.96;100.00;99510.25;5039854;28;20223;-52
2023/03/08 02:29:53;;;;;;;4.68;0.95;;;;;;;-2.00;100.00;99500.69;5041061;28;20667;-53
2023/03/08 02:32:18;;;;;;;1.90;0.90;;;;;;;-2.03;100.00;99504.19;5044442;28;20291;-52
2023/03/08 02:34:44;;;;;;;1.55;0.80;;;;;;;-2.11;100.00;99504.25;5039919;28;20281;-52
2023/03/08 02:37:11;;;;;;;1.98;1.00;;;;;;;-2.14;100.00;99499.03;5039719;28;20217;-51
2023/03/08 02:39:37;;;;;;;2.03;0.90;;;;;;;-2.09;100.00;99506.88;5038788;28;20275;-51
2023/03/08 02:42:03;;;;;;;3.35;0.77;;;;;;;-2.07;100.00;99505.97;5041569;28;20286;-51
2023/03/08 02:44:28;;;;;;;2.92;1.02;;;;;;;-2.17;100.00;99509.53;5041478;28;20253;-52
2023/03/08 02:46:54;;;;;;;3.80;0.75;;;;;;;-2.16;100.00;99506.06;5038393;28;20642;-51
2023/03/08 02:49:20;;;;;;;5.43;0.90;;;;;;;-2.16;100.00;99511.28;5032528;28;20204;-52
2023/03/08 02:51:46;;;;;;;4.65;0.90;;;;;;;-2.21;100.00;99507.81;5044920;28;20196;-52
2023/03/08 02:54:13;;;;;;;3.03;0.65;;;;;;;-2.31;100.00;99511.41;5038320;28;20603;-52
2023/03/08 02:56:38;;;;;;;2.28;0.90;;;;;;;-2.19;100.00;99508.69;5034490;28;20274;-50
2023/03/08 02:59:05;;;;;;;3.85;1.00;;;;;;;-2.17;100.00;99513.94;5036330;28;20179;-51
2023/03/08 03:01:31;;;;;;;2.65;0.80;;;;;;;-2.29;100.00;99509.66;5033339;28;20717;-50
2023/03/08 03:03:58;;;;;;;1.40;0.70;;;;;;;-2.47;100.00;99510.66;5047283;28;20214;-51
2023/03/08 03:06:23;;;;;;;3.47;1.00;;;;;;;-2.54;100.00;99520.28;5034670;28;20184;-50
2023/03/08 03:08:52;;;;;;;1.17;0.60;;;;;;;-2.73;100.00;99519.56;5026195;28;20204;-51
2023/03/08 03:11:20;;;;;;;1.85;0.57;;;;;;;-2.86;100.00;99509.13;5043397;28;20599;-51
2023/03/08 03:13:52;;;;;;;2.65;0.65;;;;;;;-2.69;100.00;99512.50;5041055;28;20216;-50
2023/03/08 03:16:18;;;;;;;2.88;0.73;;;;;;;-2.67;100.00;99512.53;5046698;28;20176;-51
2023/03/08 03:18:44;;;;;;;2.38;0.80;;;;;;;-2.61;100.00;99512.50;5039764;28;20210;-51
2023/03/08 03:21:12;;;;;;;4.65;0.88;;;;;;;-2.56;100.00;99523.81;5046582;28;20264;-50
2023/03/08 03:23:39;;;;;;;0.70;0.70;;;;;;;-2.54;100.00;99520.28;5043997;28;20327;-52
2023/03/08 03:26:11;;;;;;;2.55;0.80;;;;;;;-2.51;100.00;99533.41;5040816;28;20192;-50
2023/03/08 03:28:37;;;;;;;2.92;1.17;;;;;;;-2.56;100.00;99535.19;5046599;28;20317;-50
2023/03/08 03:31:16;;;;;;;3.17;0.82;;;;;;;-2.61;100.00;99528.22;5040201;28;20654;-51
2023/03/08 03:33:44;;;;;;;1.92;0.90;;;;;;;-2.57;100.00;99532.56;5040681;28;20210;-44
2023/03/08 03:36:12;;;;;;;1.95;1.02;;;;;;;-2.57;100.00;99530.81;5044045;28;20706;-47
2023/03/08 03:38:38;;;;;;;4.15;1.00;;;;;;;-2.51;100.00;99533.41;5048121;28;20191;-47
2023/03/08 03:41:07;;;;;;;1.10;0.75;;;;;;;-2.50;100.00;99536.88;5044767;28;20209;-45
2023/03/08 03:43:33;;;;;;;1.17;0.70;;;;;;;-2.64;100.00;99536.97;5048800;28;20230;-49
2023/03/08 03:46:02;;;;;;;2.78;1.10;;;;;;;-2.65;100.00;99540.47;5043391;28;20237;-47
2023/03/08 03:48:27;;;;;;;2.35;1.23;;;;;;;-2.52;100.00;99541.28;5040533;28;20249;-46
2023/03/08 03:51:18;;;;;;;5.38;1.30;;;;;;;-2.45;100.00;99547.34;5046482;28;20191;-46
2023/03/08 03:53:48;;;;;;;3.10;1.08;;;;;;;-2.35;100.00;99554.28;5047933;28;20195;-47
2023/03/08 03:56:17;;;;;;;5.15;1.70;;;;;;;-2.32;100.00;99554.25;5043691;28;20199;-47
2023/03/08 03:58:43;;;;;;;3.95;1.70;;;;;;;-2.26;100.00;99556.84;5045690;28;20206;-48
2023/03/08 04:01:17;;;;;;;4.43;1.73;;;;;;;-2.15;100.00;99564.63;5025720;28;20542;-47
2023/03/08 04:03:42;;;;;;;8.05;2.83;;;;;;;-2.05;100.00;99554.97;5027719;28;20612;-48
2023/03/08 04:06:13;;;;;;;6.70;2.33;;;;;;;-2.01;100.00;99562.78;5047103;28;20188;-48
2023/03/08 04:08:41;;;;;;;3.65;2.70;;;;;;;-1.96;100.00;99557.50;5043462;28;20223;-48
2023/03/08 04:11:09;;;;;;;5.82;2.75;;;;;;;-1.89;100.00;99552.19;5046644;28;20198;-49
2023/03/08 04:13:36;;;;;;;7.40;3.03;;;;;;;-1.82;100.00;99567.88;5039865;28;20641;-49
2023/03/08 04:16:29;;;;;;;4.85;3.10;;;;;;;-1.79;100.00;99567.84;5036742;28;20681;-46
2023/03/08 04:18:58;;;;;;;6.88;3.35;;;;;;;-1.79;100.00;99563.50;5035812;28;20664;-48
2023/03/08 04:21:26;;;;;;;6.50;3.20;;;;;;;-1.79;100.00;99567.84;5047087;28;20317;-48
2023/03/08 04:23:53;;;;;;;6.20;3.38;;;;;;;-1.77;100.00;99563.44;5032882;28;20196;-45
2023/03/08 04:26:20;;;;;;;4.90;3.03;;;;;;;-1.80;100.00;99560.88;5040753;28;20567;-45
2023/03/08 04:28:45;;;;;;;6.70;3.53;;;;;;;-1.78;100.00;99573.09;5034324;28;20416;-46
2023/03/08 04:31:11;;;;;;;7.57;3.47;;;;;;;-1.73;100.00;99575.69;5045544;28;20224;-44
2023/03/08 04:33:37;;;;;;;4.82;3.53;;;;;;;-1.76;100.00;99570.47;5039772;28;20188;-43
2023/03/08 04:36:03;;;;;;;5.13;4.00;;;;;;;-1.78;100.00;99567.84;5047183;28;20274;-43
2023/03/08 04:38:32;;;;;;;7.70;4.75;;;;;;;-1.77;100.00;99556.47;5037937;28;20553;-43
2023/03/08 04:41:00;;;;;;;8.32;4.30;;;;;;;-1.85;100.00;99563.53;5036126;28;20200;-43
2023/03/08 04:43:31;;;;;;;5.47;3.95;;;;;;;-1.81;100.00;99553.88;5039078;28;20219;-43
2023/03/08 04:45:59;;;;;;;6.95;3.92;;;;;;;-1.82;100.00;99558.25;5042039;28;20187;-43
2023/03/08 04:48:25;;;;;;;4.65;4.22;;;;;;;-1.87;100.00;99566.16;5040877;28;20199;-42
2023/03/08 04:50:53;;;;;;;5.45;4.82;;;;;;;-1.87;100.00;99560.91;5040308;28;20191;-44
2023/03/08 04:53:19;;;;;;;6.50;4.80;;;;;;;-1.88;100.00;99561.81;5045748;28;20200;-43
2023/03/08 04:55:45;;;;;;;5.78;5.15;;;;;;;-1.83;100.00;99560.91;5042913;28;20267;-43
2023/03/08 04:58:10;;;;;;;6.28;5.20;;;;;;;-1.75;100.00;99559.97;5039373;28;20278;-44
2023/03/08 05:00:36;;;;;;;6.82;5.65;;;;;;;-1.69;100.00;99559.00;5039409;28;20183;-43
2023/03/08 05:03:02;;;;;;;6.05;5.45;;;;;;;-1.74;100.00;99561.69;5042572;28;20199;-41
2023/03/08 05:05:27;;;;;;;6.70;4.80;;;;;;;-1.67;100.00;99555.47;5044493;28;20182;-41
2023/03/08 05:07:53;;;;;;;5.93;5.20;;;;;;;-1.68;100.00;99566.03;5041324;28;20263;-41
2023/03/08 05:10:19;;;;;;;6.97;5.32;;;;;;;-1.69;100.00;99574.78;5039352;28;20206;-43
2023/03/08 05:12:45;;;;;;;6.15;5.40;;;;;;;-1.68;100.00;99576.53;5041841;28;20690;-43
2023/03/08 05:15:10;;;;;;;7.13;5.85;;;;;;;-1.63;100.00;99565.97;5043874;28;20292;-43
2023/03/08 05:17:36;;;;;;;6.97;6.28;;;;;;;-1.63;100.00;99571.22;5045576;28;20187;-41
2023/03/08 05:20:03;;;;;;;7.45;6.65;;;;;;;-1.64;100.00;99565.13;5027028;28;20600;-43
2023/03/08 05:22:34;;;;;;;8.48;6.53;;;;;;;-1.61;100.00;99574.72;5040793;28;20204;-42
2023/03/08 05:24:59;;;;;;;6.93;6.13;;;;;;;-1.56;100.00;99573.78;5044133;28;20674;-43
2023/03/08 05:27:26;;;;;;;7.82;6.70;;;;;;;-1.53;100.00;99573.75;5038929;28;20313;-43
2023/03/08 05:29:52;;;;;;;9.82;7.13;;;;;;;-1.52;100.00;99567.59;5040342;28;20750;-43
2023/03/08 05:32:17;;;;;;;6.25;5.65;;;;;;;-1.54;100.00;99568.50;5042612;28;20206;-43
2023/03/08 05:34:43;;;;;;;6.20;5.53;;;;;;;-1.44;100.00;99572.81;5047385;28;20266;-43
2023/03/08 05:37:13;;;;;;;6.93;5.70;;;;;;;-1.41;100.00;99571.91;5039938;28;20607;-43
2023/03/08 05:39:41;;;;;;;6.78;5.65;;;;;;;-1.48;100.00;99566.69;5044122;28;20672;-42
2023/03/08 05:42:19;;;;;;;6.55;5.72;;;;;;;-1.43;100.00;99574.53;5043190;28;20195;-43
2023/03/08 05:44:45;;;;;;;8.40;5.50;;;;;;;-1.38;100.00;99572.72;5043105;28;20275;-42
2023/03/08 05:47:13;;;;;;;6.47;5.80;;;;;;;-1.48;100.00;99574.56;5038389;28;20555;-43
2023/03/08 05:49:39;;;;;;;6.50;5.60;;;;;;;-1.48;100.00;99565.84;5040812;28;20211;-42
2023/03/08 05:52:06;;;;;;;7.88;5.70;;;;;;;-1.46;100.00;99577.19;5045374;28;20207;-42
2023/03/08 05:54:33;;;;;;;7.35;5.70;;;;;;;-1.50;100.00;99568.47;5039943;28;20241;-44
2023/03/08 05:57:02;;;;;;;7.88;4.93;;;;;;;-1.45;100.00;99568.41;5042994;28;20716;-42
2023/03/08 05:59:29;;;;;;;6.28;5.60;;;;;;;-1.38;100.00;99570.09;5039165;28;20203;-44
2023/03/08 06:01:59;;;;;;;6.95;5.10;;;;;;;-1.35;100.00;99575.34;5033808;28;20234;-43
2023/03/08 06:04:33;;;;;;;8.00;5.35;;;;;;;-1.44;100.00;99567.56;5044801;28;20186;-43
2023/03/08 06:06:58;;;;;;;6.75;5.00;;;;;;;-1.36;100.00;99568.31;5040280;28;20183;-43
2023/03/08 06:09:31;;;;;;;6.88;5.32;;;;;;;-1.46;100.00;99577.19;5038786;28;20282;-43
2023/03/08 06:11:57;;;;;;;8.82;6.47;;;;;;;-1.41;100.00;99579.78;5036380;28;20666;-43
2023/03/08 06:14:23;;;;;;;8.25;6.32;;;;;;;-1.45;100.00;99586.81;5035538;28;20207;-44
2023/03/08 06:16:49;;;;;;;8.70;6.15;;;;;;;-1.37;100.00;99586.75;5040485;28;20386;-44
2023/03/08 06:19:18;;;;;;;7.38;6.10;;;;;;;-1.48;100.00;99582.47;5037850;28;20179;-43
2023/03/08 06:21:45;;;;;;;7.75;6.18;;;;;;;-1.45;100.00;99587.66;5040736;28;20204;-43
2023/03/08 06:24:11;;;;;;;10.25;6.40;;;;;;;-1.49;100.00;99590.34;5041769;28;20187;-41
2023/03/08 06:26:36;;;;;;;10.52;7.43;;;;;;;-1.53;100.00;99578.13;5046406;28;20290;-43
2023/03/08 06:29:02;;;;;;;13.35;7.30;;;;;;;-1.55;100.00;99587.75;5038929;28;20208;-42
2023/03/08 06:31:30;;;;;;;10.00;8.00;;;;;;;-1.56;100.00;99576.41;5035463;28;20569;-42
2023/03/08 06:33:56;;;;;;;9.82;7.53;;;;;;;-1.41;100.00;99585.03;5039422;28;20204;-44
2023/03/08 06:36:25;;;;;;;9.48;8.25;;;;;;;-1.38;100.00;99585.84;5039850;28;20235;-43
2023/03/08 06:38:50;;;;;;;8.38;7.35;;;;;;;-1.33;100.00;99594.59;5038639;28;20184;-42
2023/03/08 06:41:17;;;;;;;9.50;8.10;;;;;;;-1.39;100.00;99597.25;5039858;28;20206;-44
2023/03/08 06:43:45;;;;;;;10.30;9.20;;;;;;;-1.37;100.00;99590.25;5040208;28;20229;-44
2023/03/08 06:46:15;;;;;;;12.13;9.80;;;;;;;-1.39;100.00;99589.38;5041886;28;20184;-43
2023/03/08 06:48:42;;;;;;;15.55;11.73;;;;;;;-1.32;100.00;99584.94;5037276;28;20207;-43
2023/03/08 06:51:08;;;;;;;15.65;11.98;;;;;;;-1.29;100.00;99595.41;5047077;28;20458;-44
2023/03/08 06:53:37;;;;;;;13.48;10.73;;;;;;;-1.39;100.00;99589.38;5040977;28;20554;-41
2023/03/08 06:56:06;;;;;;;11.35;9.68;;;;;;;-1.32;100.00;99585.78;5040223;28;20549;-44
2023/03/08 06:58:35;;;;;;;10.95;9.55;;;;;;;-1.29;100.00;99591.03;5041354;28;20182;-43
2023/03/08 07:01:03;;;;;;;9.85;8.70;;;;;;;-1.18;100.00;99584.78;5041389;28;20176;-47
2023/03/08 07:03:29;;;;;;;8.93;7.53;;;;;;;-1.34;100.00;99577.06;5038136;28;20674;-47
2023/03/08 07:06:04;;;;;;;9.07;8.13;;;;;;;-1.25;100.00;99578.72;5040796;28;20259;-46
2023/03/08 07:08:30;;;;;;;9.13;8.07;;;;;;;-1.17;100.00;99574.25;5043043;28;20190;-46
2023/03/08 07:10:57;;;;;;;10.55;8.32;;;;;;;-1.07;100.00;99577.69;5039345;28;20180;-47
2023/03/08 07:13:22;;;;;;;8.77;7.85;;;;;;;-1.02;100.00;99569.75;5041254;28;20331;-46
2023/03/08 07:15:51;;;;;;;9.35;7.88;;;;;;;-0.96;100.00;99573.16;5040152;28;20282;-46
2023/03/08 07:18:18;;;;;;;12.07;9.15;;;;;;;-0.86;100.00;99571.28;5038719;28;20534;-47
2023/03/08 07:20:44;;;;;;;9.10;8.05;;;;;;;-0.87;100.00;99572.19;5036534;28;20187;-46
2023/03/08 07:23:10;;;;;;;9.25;7.95;;;;;;;-0.92;100.00;99564.34;5034906;28;20266;-47
2023/03/08 07:25:38;;;;;;;9.30;7.57;;;;;;;-0.92;100.00;99568.72;5036515;28;20179;-49
2023/03/08 07:28:04;;;;;;;8.45;7.65;;;;;;;-0.71;100.00;99565.81;5035274;28;20187;-47
2023/03/08 07:30:30;;;;;;;11.63;7.82;;;;;;;-0.51;100.00;99575.22;5040601;28;20578;-47
2023/03/08 07:32:55;;;;;;;11.40;7.13;;;;;;;-0.57;100.00;99567.41;5035510;28;20188;-48
2023/03/08 07:35:21;;;;;;;7.50;6.72;;;;;;;-0.56;100.00;99577.91;5033933;28;20212;-48
2023/03/08 07:37:46;;;;;;;8.88;7.03;;;;;;;-0.38;100.00;99575.94;5043724;28;20212;-47
2023/03/08 07:40:15;;;;;;;7.57;6.85;;;;;;;-0.30;100.00;99574.94;5033812;28;20172;-46
2023/03/08 07:42:41;;;;;;;9.15;6.50;;;;;;;-0.26;100.00;99584.53;5051438;28;20690;-46
2023/03/08 07:45:22;;;;;;;7.43;5.78;;;;;;;-0.38;100.00;99589.09;5039110;28;20266;-48
2023/03/08 07:47:51;;;;;;;5.75;5.28;;;;;;;-0.22;100.00;99577.44;5045985;28;20266;-47
2023/03/08 07:50:18;;;;;;;6.00;5.50;;;;;;;-0.44;100.00;99590.91;5033993;28;20294;-48
2023/03/08 07:52:43;;;;;;;6.97;5.80;;;;;;;-0.36;100.00;99582.91;5030531;28;20204;-47
2023/03/08 07:55:10;;;;;;;5.97;5.43;;;;;;;-0.43;100.00;99573.38;5045214;28;20183;-48
2023/03/08 07:57:36;;;;;;;7.30;5.32;;;;;;;-0.11;100.00;99591.34;5042858;28;20184;-48
2023/03/08 08:00:06;;;;;;;6.28;5.60;;;;;;;-0.04;100.00;99592.13;5042515;28;20168;-46
2023/03/08 08:02:37;;;;;;;6.50;5.90;;;;;;;-0.17;100.00;99594.06;5047102;28;20207;-49
2023/03/08 08:05:03;;;;;;;7.88;5.95;;;;;;;-0.09;100.00;99588.66;5039757;28;20180;-48
2023/03/08 08:07:29;;;;;;;6.38;5.78;;;;;;;-0.14;100.00;99591.38;5037237;28;20179;-46
2023/03/08 08:09:55;;;;;;;6.80;6.00;;;;;;;-0.37;100.00;99593.44;5038087;28;20631;-48
2023/03/08 08:12:20;;;;;;;6.18;5.63;;;;;;;-0.24;100.00;99589.75;5041095;28;20208;-46
2023/03/08 08:14:46;;;;;;;5.82;5.15;;;;;;;-0.16;100.00;99587.88;5042036;28;20267;-47
2023/03/08 08:17:11;;;;;;;6.47;5.82;;;;;;;-0.29;100.00;99589.81;5042060;28;20626;-46
2023/03/08 08:19:37;;;;;;;5.28;4.78;;;;;;;-0.35;100.00;99589.03;5040587;28;20172;-49
2023/03/08 08:22:03;;;;;;;5.38;4.88;;;;;;;-0.38;100.00;99591.72;5043486;28;20642;-47
2023/03/08 08:24:29;;;;;;;5.03;4.57;;;;;;;-0.26;100.00;99584.53;5044381;28;20175;-47
2023/03/08 08:26:55;;;;;;;4.90;4.50;;;;;;;-0.13;100.00;99590.50;5042419;28;20199;-48
2023/03/08 08:29:21;;;;;;;4.97;4.50;;;;;;;-0.10;100.00;99600.97;5045663;28;20218;-47
2023/03/08 08:31:47;;;;;;;5.10;4.70;;;;;;;-0.24;100.00;99589.75;5043397;28;20179;-47
2023/03/08 08:34:12;;;;;;;5.30;4.68;;;;;;;0.06;100.00;99598.09;5041111;28;20176;-46
2023/03/08 08:36:38;;;;;;;5.55;5.05;;;;;;;-0.17;100.00;99590.56;5046047;28;20715;-47
2023/03/08 08:39:04;;;;;;;9.15;5.97;;;;;;;-0.34;100.00;99590.78;5043749;28;20241;-47
2023/03/08 08:41:31;;;;;;;5.75;5.25;;;;;;;-0.11;100.00;99586.06;5047907;28;20179;-49
2023/03/08 08:43:58;;;;;;;5.72;5.13;;;;;;;-0.13;100.00;99593.13;5042122;28;20207;-47
2023/03/08 08:46:26;;;;;;;6.18;5.68;;;;;;;0.14;100.00;99589.19;5047070;28;20179;-46
2023/03/08 08:48:53;;;;;;;5.93;5.32;;;;;;;0.41;100.00;99597.53;5038294;28;20200;-48
2023/03/08 08:51:19;;;;;;;5.72;5.22;;;;;;;0.50;100.00;99588.59;5044786;28;20188;-48
2023/03/08 08:53:45;;;;;;;6.13;5.57;;;;;;;0.63;100.00;99586.63;5043313;28;20265;-47
2023/03/08 08:56:13;;;;;;;5.10;4.70;;;;;;;0.84;100.00;99586.22;5041758;28;20186;-46
2023/03/08 08:58:39;;;;;;;5.18;4.78;;;;;;;0.39;100.00;99594.94;5040367;28;20200;-46
2023/03/08 09:01:11;;;;;;;6.70;5.07;;;;;;;0.31;100.00;99588.06;5043293;28;20214;-46
2023/03/08 09:03:36;;;;;;;5.03;4.63;;;;;;;0.41;100.00;99590.47;5033656;28;20233;-46
2023/03/08 09:06:02;;;;;;;6.60;5.00;;;;;;;0.40;100.00;99601.94;5038208;28;20619;-45
2023/03/08 09:08:27;;;;;;;4.97;4.53;;;;;;;0.28;100.00;99588.94;5033332;28;20176;-45
2023/03/08 09:10:53;;;;;;;9.27;4.70;;;;;;;0.25;100.00;99593.41;5034002;28;20179;-45
2023/03/08 09:13:18;;;;;;;5.80;5.22;;;;;;;0.30;100.00;99597.69;5035354;28;20473;-46
2023/03/08 09:15:44;;;;;;;5.10;4.68;;;;;;;0.33;100.00;99605.56;5035648;28;20588;-48
2023/03/08 09:18:09;;;;;;;6.25;5.30;;;;;;;0.38;100.00;99600.22;5034641;28;20665;-48
2023/03/08 09:20:35;;;;;;;6.15;5.55;;;;;;;0.38;100.00;99597.59;5031254;28;20495;-47
2023/03/08 09:23:00;;;;;;;5.90;5.40;;;;;;;0.31;100.00;99604.72;5040215;28;20215;-45
2023/03/08 09:25:26;;;;;;;6.13;5.57;;;;;;;0.45;100.00;99596.59;5036945;28;20205;-46
2023/03/08 09:27:52;;;;;;;5.63;5.18;;;;;;;0.47;100.00;99601.84;5037305;28;20611;-46
2023/03/08 09:30:18;;;;;;;8.23;5.78;;;;;;;0.57;100.00;99599.03;5031786;28;20207;-43
2023/03/08 09:32:43;;;;;;;6.05;5.55;;;;;;;0.64;100.00;99598.91;5035293;28;20207;-44
2023/03/08 09:35:09;;;;;;;6.63;5.97;;;;;;;0.49;100.00;99590.38;5045172;28;20183;-46
2023/03/08 09:37:35;;;;;;;7.70;6.03;;;;;;;0.86;100.00;99599.41;5038848;28;20198;-46
2023/03/08 09:40:01;;;;;;;5.93;5.43;;;;;;;1.13;100.00;99601.50;5044386;28;20184;-47
2023/03/08 09:42:31;;;;;;;6.15;4.88;;;;;;;0.90;100.00;99591.41;5031690;28;20203;-46
2023/03/08 09:45:24;;;;;;;5.40;4.63;;;;;;;0.84;100.00;99588.00;5036616;28;20260;-45
2023/03/08 09:48:09;;;;;;;4.82;4.40;;;;;;;1.13;100.00;99584.81;5039626;28;20229;-46
2023/03/08 09:50:35;;;;;;;6.35;4.60;;;;;;;1.58;100.00;99584.75;5041323;28;20206;-45
2023/03/08 09:53:13;;;;;;;4.88;4.47;;;;;;;1.62;100.00;99583.78;5039965;28;20215;-46
2023/03/08 09:55:46;;;;;;;5.00;4.50;;;;;;;2.00;100.00;99582.06;5041683;28;20175;-46
2023/03/08 09:58:55;;;;;;;5.07;4.18;;;;;;;2.46;100.00;99576.50;5042825;28;20184;-47
2023/03/08 10:01:57;;;;;;;4.70;4.35;;;;;;;2.53;100.00;99574.56;4970563;28;20197;-45
2023/03/08 10:04:47;;;;;;;4.43;4.03;;;;;;;2.23;100.00;99577.09;5042981;28;20184;-47
2023/03/08 10:07:31;;;;;;;4.38;3.83;;;;;;;2.15;100.00;99573.75;5039703;28;20184;-45
2023/03/08 10:10:13;;;;;;;3.60;3.30;;;;;;;1.81;100.00;99579.81;5041659;28;20682;-46
2023/03/08 10:13:04;;;;;;;3.70;3.47;;;;;;;1.79;100.00;99564.91;5037156;28;20199;-46
2023/03/08 10:15:35;;;;;;;4.05;3.75;;;;;;;1.60;100.00;99573.25;5043350;28;20595;-47
2023/03/08 10:18:19;;;;;;;4.63;4.18;;;;;;;1.32;100.00;99566.84;5037504;28;20183;-47
2023/03/08 10:20:45;;;;;;;4.75;4.25;;;;;;;1.31;100.00;99562.44;5032062;28;20629;-46
2023/03/08 10:23:20;;;;;;;4.80;4.40;;;;;;;1.17;100.00;99560.09;5037640;28;20274;-46
2023/03/08 10:25:47;;;;;;;4.70;4.30;;;;;;;1.15;100.00;99570.69;5038056;28;20191;-48
2023/03/08 10:28:19;;;;;;;4.60;4.30;;;;;;;1.27;100.00;99560.75;5037126;28;20241;-47
2023/03/08 10:30:48;;;;;;;5.50;5.10;;;;;;;1.11;100.00;99570.78;5033863;28;20211;-49
2023/03/08 10:33:16;;;;;;;5.60;5.10;;;;;;;0.97;100.00;99560.50;5050054;28;20211;-47
2023/03/08 10:36:05;;;;;;;6.15;5.45;;;;;;;1.15;100.00;99561.91;5034259;28;20266;-46
2023/03/08 10:38:35;;;;;;;5.22;4.80;;;;;;;1.43;100.00;99551.63;5034434;28;20224;-44
2023/03/08 10:41:15;;;;;;;5.82;5.32;;;;;;;1.24;100.00;99553.78;5040470;28;20190;-48
2023/03/08 10:43:49;;;;;;;5.45;5.05;;;;;;;1.56;100.00;99545.19;5045101;28;20298;-43
2023/03/08 10:46:17;;;;;;;6.13;5.25;;;;;;;1.75;100.00;99553.56;5041543;28;20603;-46
2023/03/08 10:48:44;;;;;;;6.30;5.70;;;;;;;1.28;100.00;99551.97;5040501;28;20191;-42
2023/03/08 10:51:23;;;;;;;5.30;4.90;;;;;;;1.55;100.00;99553.13;5041104;28;20180;-44
2023/03/08 10:53:54;;;;;;;5.45;5.00;;;;;;;1.38;100.00;99553.53;5038390;28;20687;-43
2023/03/08 10:56:30;;;;;;;8.30;5.25;;;;;;;1.66;100.00;99569.59;5037164;28;20609;-41
2023/03/08 10:58:57;;;;;;;6.03;5.53;;;;;;;1.95;100.00;99562.81;5039198;28;20259;-43
2023/03/08 11:01:26;;;;;;;4.90;4.57;;;;;;;1.45;100.00;99565.69;5043739;28;20169;-44
2023/03/08 11:04:01;;;;;;;5.18;4.78;;;;;;;1.17;100.00;99563.59;5036047;28;20215;-43
2023/03/08 11:06:27;;;;;;;5.15;4.78;;;;;;;1.43;100.00;99552.50;5058284;28;20261;-44
2023/03/08 11:08:56;;;;;;;5.75;5.25;;;;;;;1.46;100.00;99559.47;5035300;28;20254;-43
2023/03/08 11:11:22;;;;;;;5.20;4.70;;;;;;;1.64;100.00;99560.88;5041137;28;20624;-43
2023/03/08 11:13:50;;;;;;;5.65;5.15;;;;;;;1.33;100.00;99558.00;5037872;28;20365;-43
2023/03/08 11:16:47;;;;;;;5.65;5.18;;;;;;;1.35;100.00;99556.22;5041029;28;20307;-44
2023/03/08 11:19:31;;;;;;;6.30;4.95;;;;;;;1.36;100.00;99553.53;5035673;28;20184;-42
2023/03/08 11:21:58;;;;;;;5.40;5.00;;;;;;;1.38;100.00;99548.25;5039428;28;20187;-44
2023/03/08 11:24:40;;;;;;;5.40;5.00;;;;;;;1.47;100.00;99541.91;5036286;28;20226;-44
2023/03/08 11:27:11;;;;;;;5.10;4.60;;;;;;;1.77;100.00;99551.78;5031567;28;20186;-42
2023/03/08 11:29:45;;;;;;;5.30;4.85;;;;;;;1.73;100.00;99552.75;5048577;28;20187;-43
2023/03/08 11:32:34;;;;;;;4.68;4.32;;;;;;;1.79;100.00;99547.31;5043636;28;20229;-43
2023/03/08 11:35:23;;;;;;;4.50;4.10;;;;;;;1.81;100.00;99555.19;5043019;28;20183;-44